sensor_id;sensor_type;location;lat;lon;timestamp;P1;durP1;ratioP1;P2;durP2;ratioP2
7440;SDS011;29616;51.950;8.572;2023-02-11T00:01:48;176.90;;;46.63;;
7440;SDS011;29616;51.950;8.572;2023-02-11T00:04:19;167.43;;;44.28;;
7440;SDS011;29616;51.950;8.572;2023-02-11T00:06:47;164.48;;;45.13;;
7440;SDS011;29616;51.950;8.572;2023-02-11T00:09:18;173.57;;;47.70;;
7440;SDS011;29616;51.950;8.572;2023-02-11T00:11:48;174.75;;;46.90;;
7440;SDS011;29616;51.950;8.572;2023-02-11T00:14:16;158.98;;;45.53;;
7440;SDS011;29616;51.950;8.572;2023-02-11T00:16:45;164.18;;;48.13;;
7440;SDS011;29616;51.950;8.572;2023-02-11T00:19:15;157.60;;;46.72;;
7440;SDS011;29616;51.950;8.572;2023-02-11T00:21:45;172.73;;;47.78;;
7440;SDS011;29616;51.950;8.572;2023-02-11T00:24:14;188.15;;;49.10;;
7440;SDS011;29616;51.950;8.572;2023-02-11T00:26:43;178.38;;;48.08;;
7440;SDS011;29616;51.950;8.572;2023-02-11T00:29:11;172.05;;;47.08;;
7440;SDS011;29616;51.950;8.572;2023-02-11T00:31:39;174.93;;;47.25;;
7440;SDS011;29616;51.950;8.572;2023-02-11T00:34:08;172.02;;;45.42;;
7440;SDS011;29616;51.950;8.572;2023-02-11T00:36:38;174.77;;;47.42;;
7440;SDS011;29616;51.950;8.572;2023-02-11T00:39:11;183.40;;;46.85;;
7440;SDS011;29616;51.950;8.572;2023-02-11T00:41:39;189.55;;;52.47;;
7440;SDS011;29616;51.950;8.572;2023-02-11T00:44:11;179.88;;;49.13;;
7440;SDS011;29616;51.950;8.572;2023-02-11T00:46:39;176.25;;;46.92;;
7440;SDS011;29616;51.950;8.572;2023-02-11T00:49:09;175.52;;;47.38;;
7440;SDS011;29616;51.950;8.572;2023-02-11T00:51:39;188.88;;;52.35;;
7440;SDS011;29616;51.950;8.572;2023-02-11T00:54:11;167.55;;;45.30;;
7440;SDS011;29616;51.950;8.572;2023-02-11T00:56:41;173.20;;;48.58;;
7440;SDS011;29616;51.950;8.572;2023-02-11T00:59:10;175.25;;;45.50;;
7440;SDS011;29616;51.950;8.572;2023-02-11T01:01:38;179.18;;;47.70;;
7440;SDS011;29616;51.950;8.572;2023-02-11T01:04:08;204.52;;;54.95;;
7440;SDS011;29616;51.950;8.572;2023-02-11T01:06:36;180.30;;;44.72;;
7440;SDS011;29616;51.950;8.572;2023-02-11T01:09:07;194.43;;;51.70;;
7440;SDS011;29616;51.950;8.572;2023-02-11T01:11:38;199.20;;;53.22;;
7440;SDS011;29616;51.950;8.572;2023-02-11T01:14:09;180.13;;;46.95;;
7440;SDS011;29616;51.950;8.572;2023-02-11T01:16:38;190.80;;;53.67;;
7440;SDS011;29616;51.950;8.572;2023-02-11T01:19:09;193.40;;;55.13;;
7440;SDS011;29616;51.950;8.572;2023-02-11T01:21:37;195.55;;;50.70;;
7440;SDS011;29616;51.950;8.572;2023-02-11T01:24:08;179.38;;;44.75;;
7440;SDS011;29616;51.950;8.572;2023-02-11T01:26:39;178.63;;;46.80;;
7440;SDS011;29616;51.950;8.572;2023-02-11T01:29:07;195.30;;;49.20;;
7440;SDS011;29616;51.950;8.572;2023-02-11T01:31:36;201.00;;;58.58;;
7440;SDS011;29616;51.950;8.572;2023-02-11T01:34:06;187.27;;;51.22;;
7440;SDS011;29616;51.950;8.572;2023-02-11T01:36:36;175.30;;;47.83;;
7440;SDS011;29616;51.950;8.572;2023-02-11T01:39:06;191.93;;;49.30;;
7440;SDS011;29616;51.950;8.572;2023-02-11T01:41:35;185.75;;;51.80;;
7440;SDS011;29616;51.950;8.572;2023-02-11T01:44:22;187.57;;;54.47;;
7440;SDS011;29616;51.950;8.572;2023-02-11T01:46:54;193.18;;;49.35;;
7440;SDS011;29616;51.950;8.572;2023-02-11T01:49:25;209.02;;;61.20;;
7440;SDS011;29616;51.950;8.572;2023-02-11T01:51:59;188.30;;;47.33;;
7440;SDS011;29616;51.950;8.572;2023-02-11T01:54:33;194.63;;;50.67;;
7440;SDS011;29616;51.950;8.572;2023-02-11T01:57:26;187.27;;;50.40;;
7440;SDS011;29616;51.950;8.572;2023-02-11T02:00:05;189.98;;;50.55;;
7440;SDS011;29616;51.950;8.572;2023-02-11T02:02:43;190.65;;;49.78;;
7440;SDS011;29616;51.950;8.572;2023-02-11T02:05:23;168.20;;;42.42;;
7440;SDS011;29616;51.950;8.572;2023-02-11T02:08:01;182.80;;;46.92;;
7440;SDS011;29616;51.950;8.572;2023-02-11T02:10:35;174.75;;;44.63;;
7440;SDS011;29616;51.950;8.572;2023-02-11T02:13:11;174.80;;;44.67;;
7440;SDS011;29616;51.950;8.572;2023-02-11T02:15:43;184.32;;;48.20;;
7440;SDS011;29616;51.950;8.572;2023-02-11T02:18:21;182.43;;;50.72;;
7440;SDS011;29616;51.950;8.572;2023-02-11T02:27:19;186.73;;;46.78;;
7440;SDS011;29616;51.950;8.572;2023-02-11T02:30:10;183.43;;;45.20;;
7440;SDS011;29616;51.950;8.572;2023-02-11T02:33:22;207.60;;;52.75;;
7440;SDS011;29616;51.950;8.572;2023-02-11T02:36:02;188.07;;;46.42;;
7440;SDS011;29616;51.950;8.572;2023-02-11T02:38:40;182.57;;;45.40;;
7440;SDS011;29616;51.950;8.572;2023-02-11T02:41:16;184.23;;;44.67;;
7440;SDS011;29616;51.950;8.572;2023-02-11T02:43:49;188.98;;;49.85;;
7440;SDS011;29616;51.950;8.572;2023-02-11T02:46:20;189.57;;;49.00;;
7440;SDS011;29616;51.950;8.572;2023-02-11T02:48:53;182.43;;;47.10;;
7440;SDS011;29616;51.950;8.572;2023-02-11T02:54:45;175.25;;;42.65;;
7440;SDS011;29616;51.950;8.572;2023-02-11T02:57:29;183.23;;;47.30;;
7440;SDS011;29616;51.950;8.572;2023-02-11T03:00:05;186.63;;;47.75;;
7440;SDS011;29616;51.950;8.572;2023-02-11T03:02:49;183.07;;;45.70;;
7440;SDS011;29616;51.950;8.572;2023-02-11T03:05:36;182.15;;;44.97;;
7440;SDS011;29616;51.950;8.572;2023-02-11T03:08:17;179.73;;;44.25;;
7440;SDS011;29616;51.950;8.572;2023-02-11T03:10:58;179.77;;;44.50;;
7440;SDS011;29616;51.950;8.572;2023-02-11T03:13:31;185.93;;;49.88;;
7440;SDS011;29616;51.950;8.572;2023-02-11T03:16:05;188.20;;;47.15;;
7440;SDS011;29616;51.950;8.572;2023-02-11T03:18:40;186.20;;;47.22;;
7440;SDS011;29616;51.950;8.572;2023-02-11T03:21:17;184.90;;;46.47;;
7440;SDS011;29616;51.950;8.572;2023-02-11T03:23:48;184.80;;;48.95;;
7440;SDS011;29616;51.950;8.572;2023-02-11T03:26:24;184.77;;;45.17;;
7440;SDS011;29616;51.950;8.572;2023-02-11T03:28:59;182.88;;;50.42;;
7440;SDS011;29616;51.950;8.572;2023-02-11T03:31:36;183.23;;;47.30;;
7440;SDS011;29616;51.950;8.572;2023-02-11T03:34:12;193.25;;;52.60;;
7440;SDS011;29616;51.950;8.572;2023-02-11T03:36:50;190.00;;;49.05;;
7440;SDS011;29616;51.950;8.572;2023-02-11T03:39:24;178.70;;;44.47;;
7440;SDS011;29616;51.950;8.572;2023-02-11T03:41:59;172.95;;;45.72;;
7440;SDS011;29616;51.950;8.572;2023-02-11T03:44:32;176.27;;;45.95;;
7440;SDS011;29616;51.950;8.572;2023-02-11T03:47:08;170.15;;;43.88;;
7440;SDS011;29616;51.950;8.572;2023-02-11T03:49:40;174.38;;;47.53;;
7440;SDS011;29616;51.950;8.572;2023-02-11T03:52:12;174.25;;;46.42;;
7440;SDS011;29616;51.950;8.572;2023-02-11T03:54:44;177.57;;;45.08;;
7440;SDS011;29616;51.950;8.572;2023-02-11T03:57:16;170.57;;;43.40;;
7440;SDS011;29616;51.950;8.572;2023-02-11T03:59:52;164.82;;;44.33;;
7440;SDS011;29616;51.950;8.572;2023-02-11T04:02:23;166.27;;;47.10;;
7440;SDS011;29616;51.950;8.572;2023-02-11T04:04:56;162.70;;;44.92;;
7440;SDS011;29616;51.950;8.572;2023-02-11T04:07:26;178.70;;;59.08;;
7440;SDS011;29616;51.950;8.572;2023-02-11T04:09:54;174.30;;;46.53;;
7440;SDS011;29616;51.950;8.572;2023-02-11T04:12:24;183.10;;;48.05;;
7440;SDS011;29616;51.950;8.572;2023-02-11T04:14:53;184.05;;;49.30;;
7440;SDS011;29616;51.950;8.572;2023-02-11T04:17:21;187.27;;;49.60;;
7440;SDS011;29616;51.950;8.572;2023-02-11T04:19:51;181.82;;;47.50;;
7440;SDS011;29616;51.950;8.572;2023-02-11T04:22:19;178.23;;;48.42;;
7440;SDS011;29616;51.950;8.572;2023-02-11T04:24:50;180.73;;;47.58;;
7440;SDS011;29616;51.950;8.572;2023-02-11T04:27:19;183.60;;;50.00;;
7440;SDS011;29616;51.950;8.572;2023-02-11T04:29:49;173.45;;;45.83;;
7440;SDS011;29616;51.950;8.572;2023-02-11T04:32:18;192.95;;;47.58;;
7440;SDS011;29616;51.950;8.572;2023-02-11T04:34:49;171.85;;;43.70;;
7440;SDS011;29616;51.950;8.572;2023-02-11T04:37:17;178.27;;;48.72;;
7440;SDS011;29616;51.950;8.572;2023-02-11T04:39:47;183.77;;;46.20;;
7440;SDS011;29616;51.950;8.572;2023-02-11T04:42:17;181.00;;;44.85;;
7440;SDS011;29616;51.950;8.572;2023-02-11T04:44:46;185.88;;;47.00;;
7440;SDS011;29616;51.950;8.572;2023-02-11T04:47:15;170.52;;;43.38;;
7440;SDS011;29616;51.950;8.572;2023-02-11T04:49:43;177.93;;;48.35;;
7440;SDS011;29616;51.950;8.572;2023-02-11T04:52:12;176.00;;;45.53;;
7440;SDS011;29616;51.950;8.572;2023-02-11T04:54:40;172.48;;;44.90;;
7440;SDS011;29616;51.950;8.572;2023-02-11T04:57:10;174.27;;;50.85;;
7440;SDS011;29616;51.950;8.572;2023-02-11T04:59:38;171.60;;;45.03;;
7440;SDS011;29616;51.950;8.572;2023-02-11T05:02:08;172.35;;;42.42;;
7440;SDS011;29616;51.950;8.572;2023-02-11T05:04:37;182.75;;;49.55;;
7440;SDS011;29616;51.950;8.572;2023-02-11T05:07:05;192.73;;;45.88;;
7440;SDS011;29616;51.950;8.572;2023-02-11T05:09:34;179.43;;;42.45;;
7440;SDS011;29616;51.950;8.572;2023-02-11T05:12:04;180.60;;;42.55;;
7440;SDS011;29616;51.950;8.572;2023-02-11T05:14:34;180.68;;;44.00;;
7440;SDS011;29616;51.950;8.572;2023-02-11T05:17:03;174.55;;;42.03;;
7440;SDS011;29616;51.950;8.572;2023-02-11T05:19:33;188.63;;;49.50;;
7440;SDS011;29616;51.950;8.572;2023-02-11T05:22:01;187.15;;;47.88;;
7440;SDS011;29616;51.950;8.572;2023-02-11T05:24:30;189.77;;;48.67;;
7440;SDS011;29616;51.950;8.572;2023-02-11T05:27:00;195.52;;;51.20;;
7440;SDS011;29616;51.950;8.572;2023-02-11T05:29:29;174.15;;;43.92;;
7440;SDS011;29616;51.950;8.572;2023-02-11T05:32:01;188.25;;;52.55;;
7440;SDS011;29616;51.950;8.572;2023-02-11T05:34:31;188.30;;;52.20;;
7440;SDS011;29616;51.950;8.572;2023-02-11T05:37:00;171.63;;;45.30;;
7440;SDS011;29616;51.950;8.572;2023-02-11T05:39:29;169.13;;;42.58;;
7440;SDS011;29616;51.950;8.572;2023-02-11T05:41:57;170.25;;;49.20;;
7440;SDS011;29616;51.950;8.572;2023-02-11T05:44:26;175.65;;;46.78;;
7440;SDS011;29616;51.950;8.572;2023-02-11T05:46:54;189.65;;;58.08;;
7440;SDS011;29616;51.950;8.572;2023-02-11T05:49:25;188.10;;;48.33;;
7440;SDS011;29616;51.950;8.572;2023-02-11T05:51:54;190.52;;;47.75;;
7440;SDS011;29616;51.950;8.572;2023-02-11T05:54:23;178.88;;;42.10;;
7440;SDS011;29616;51.950;8.572;2023-02-11T05:56:53;182.57;;;44.10;;
7440;SDS011;29616;51.950;8.572;2023-02-11T05:59:21;179.55;;;42.65;;
7440;SDS011;29616;51.950;8.572;2023-02-11T06:01:50;185.38;;;46.90;;
7440;SDS011;29616;51.950;8.572;2023-02-11T06:04:19;182.23;;;43.88;;
7440;SDS011;29616;51.950;8.572;2023-02-11T06:06:52;196.60;;;49.72;;
7440;SDS011;29616;51.950;8.572;2023-02-11T06:09:21;180.60;;;46.50;;
7440;SDS011;29616;51.950;8.572;2023-02-11T06:11:50;184.73;;;47.10;;
7440;SDS011;29616;51.950;8.572;2023-02-11T06:14:19;201.55;;;53.22;;
7440;SDS011;29616;51.950;8.572;2023-02-11T06:16:47;190.05;;;47.88;;
7440;SDS011;29616;51.950;8.572;2023-02-11T06:19:16;183.85;;;45.22;;
7440;SDS011;29616;51.950;8.572;2023-02-11T06:21:45;170.45;;;43.72;;
7440;SDS011;29616;51.950;8.572;2023-02-11T06:24:16;168.02;;;41.70;;
7440;SDS011;29616;51.950;8.572;2023-02-11T06:27:05;169.48;;;43.70;;
7440;SDS011;29616;51.950;8.572;2023-02-11T06:29:33;166.27;;;43.55;;
7440;SDS011;29616;51.950;8.572;2023-02-11T06:32:02;189.00;;;53.15;;
7440;SDS011;29616;51.950;8.572;2023-02-11T06:34:32;177.30;;;50.38;;
7440;SDS011;29616;51.950;8.572;2023-02-11T06:37:01;174.60;;;45.97;;
7440;SDS011;29616;51.950;8.572;2023-02-11T06:39:32;173.60;;;44.05;;
7440;SDS011;29616;51.950;8.572;2023-02-11T06:42:02;174.85;;;53.33;;
7440;SDS011;29616;51.950;8.572;2023-02-11T06:47:03;176.13;;;46.15;;
7440;SDS011;29616;51.950;8.572;2023-02-11T06:49:32;176.82;;;46.20;;
7440;SDS011;29616;51.950;8.572;2023-02-11T06:52:02;181.02;;;48.05;;
7440;SDS011;29616;51.950;8.572;2023-02-11T06:54:30;174.80;;;45.05;;
7440;SDS011;29616;51.950;8.572;2023-02-11T06:57:01;200.25;;;57.53;;
7440;SDS011;29616;51.950;8.572;2023-02-11T06:59:30;177.63;;;47.90;;
7440;SDS011;29616;51.950;8.572;2023-02-11T07:02:03;187.50;;;48.22;;
7440;SDS011;29616;51.950;8.572;2023-02-11T07:04:31;179.88;;;46.03;;
7440;SDS011;29616;51.950;8.572;2023-02-11T07:06:59;187.52;;;47.22;;
7440;SDS011;29616;51.950;8.572;2023-02-11T07:09:29;183.23;;;46.90;;
7440;SDS011;29616;51.950;8.572;2023-02-11T07:12:00;177.15;;;45.08;;
7440;SDS011;29616;51.950;8.572;2023-02-11T07:14:28;172.48;;;46.15;;
7440;SDS011;29616;51.950;8.572;2023-02-11T07:16:58;173.07;;;47.47;;
7440;SDS011;29616;51.950;8.572;2023-02-11T07:19:27;189.40;;;49.78;;
7440;SDS011;29616;51.950;8.572;2023-02-11T07:21:56;211.45;;;57.78;;
7440;SDS011;29616;51.950;8.572;2023-02-11T07:24:26;187.90;;;46.42;;
7440;SDS011;29616;51.950;8.572;2023-02-11T07:26:55;182.82;;;50.22;;
7440;SDS011;29616;51.950;8.572;2023-02-11T07:29:26;200.75;;;54.90;;
7440;SDS011;29616;51.950;8.572;2023-02-11T07:31:54;200.70;;;61.58;;
7440;SDS011;29616;51.950;8.572;2023-02-11T07:34:23;183.70;;;51.33;;
7440;SDS011;29616;51.950;8.572;2023-02-11T07:36:54;170.75;;;45.42;;
7440;SDS011;29616;51.950;8.572;2023-02-11T07:39:22;171.88;;;45.03;;
7440;SDS011;29616;51.950;8.572;2023-02-11T07:41:55;178.70;;;50.22;;
7440;SDS011;29616;51.950;8.572;2023-02-11T07:44:25;171.35;;;45.17;;
7440;SDS011;29616;51.950;8.572;2023-02-11T07:46:54;173.60;;;49.53;;
7440;SDS011;29616;51.950;8.572;2023-02-11T07:49:24;180.02;;;46.67;;
7440;SDS011;29616;51.950;8.572;2023-02-11T07:51:53;177.85;;;48.30;;
7440;SDS011;29616;51.950;8.572;2023-02-11T07:54:23;176.43;;;49.33;;
7440;SDS011;29616;51.950;8.572;2023-02-11T07:56:54;173.07;;;46.00;;
7440;SDS011;29616;51.950;8.572;2023-02-11T07:59:24;185.40;;;55.05;;
7440;SDS011;29616;51.950;8.572;2023-02-11T08:01:54;183.30;;;48.83;;
7440;SDS011;29616;51.950;8.572;2023-02-11T08:04:23;181.68;;;46.17;;
7440;SDS011;29616;51.950;8.572;2023-02-11T08:06:54;176.55;;;50.08;;
7440;SDS011;29616;51.950;8.572;2023-02-11T08:09:24;174.43;;;45.38;;
7440;SDS011;29616;51.950;8.572;2023-02-11T08:11:54;187.27;;;56.67;;
7440;SDS011;29616;51.950;8.572;2023-02-11T08:14:22;178.15;;;47.90;;
7440;SDS011;29616;51.950;8.572;2023-02-11T08:16:56;178.48;;;48.47;;
7440;SDS011;29616;51.950;8.572;2023-02-11T08:19:25;183.13;;;47.47;;
7440;SDS011;29616;51.950;8.572;2023-02-11T08:21:56;176.70;;;47.95;;
7440;SDS011;29616;51.950;8.572;2023-02-11T08:24:27;175.73;;;47.75;;
7440;SDS011;29616;51.950;8.572;2023-02-11T08:26:58;190.00;;;59.88;;
7440;SDS011;29616;51.950;8.572;2023-02-11T08:29:26;179.32;;;50.70;;
7440;SDS011;29616;51.950;8.572;2023-02-11T08:31:59;172.90;;;46.35;;
7440;SDS011;29616;51.950;8.572;2023-02-11T08:34:29;185.90;;;55.55;;
7440;SDS011;29616;51.950;8.572;2023-02-11T08:36:58;173.43;;;44.83;;
7440;SDS011;29616;51.950;8.572;2023-02-11T08:39:26;169.23;;;43.42;;
7440;SDS011;29616;51.950;8.572;2023-02-11T08:41:56;189.45;;;51.03;;
7440;SDS011;29616;51.950;8.572;2023-02-11T08:44:24;181.18;;;50.10;;
7440;SDS011;29616;51.950;8.572;2023-02-11T08:46:52;180.35;;;49.45;;
7440;SDS011;29616;51.950;8.572;2023-02-11T08:49:22;194.90;;;47.22;;
7440;SDS011;29616;51.950;8.572;2023-02-11T08:54:22;196.88;;;54.17;;
7440;SDS011;29616;51.950;8.572;2023-02-11T08:56:52;202.40;;;52.78;;
7440;SDS011;29616;51.950;8.572;2023-02-11T08:59:21;195.73;;;54.58;;
7440;SDS011;29616;51.950;8.572;2023-02-11T09:01:51;193.77;;;48.90;;
7440;SDS011;29616;51.950;8.572;2023-02-11T09:04:19;181.70;;;44.30;;
7440;SDS011;29616;51.950;8.572;2023-02-11T09:06:49;192.05;;;50.75;;
7440;SDS011;29616;51.950;8.572;2023-02-11T09:09:18;194.13;;;47.00;;
7440;SDS011;29616;51.950;8.572;2023-02-11T09:11:46;186.15;;;47.13;;
7440;SDS011;29616;51.950;8.572;2023-02-11T09:14:17;197.20;;;53.15;;
7440;SDS011;29616;51.950;8.572;2023-02-11T09:16:50;188.25;;;49.63;;
7440;SDS011;29616;51.950;8.572;2023-02-11T09:19:20;192.52;;;48.40;;
7440;SDS011;29616;51.950;8.572;2023-02-11T09:21:53;185.85;;;50.30;;
7440;SDS011;29616;51.950;8.572;2023-02-11T09:24:21;197.90;;;53.95;;
7440;SDS011;29616;51.950;8.572;2023-02-11T09:26:51;186.05;;;52.88;;
7440;SDS011;29616;51.950;8.572;2023-02-11T09:29:21;206.85;;;59.85;;
7440;SDS011;29616;51.950;8.572;2023-02-11T09:31:52;181.93;;;51.40;;
7440;SDS011;29616;51.950;8.572;2023-02-11T09:34:20;182.90;;;42.97;;
7440;SDS011;29616;51.950;8.572;2023-02-11T09:36:52;186.85;;;47.92;;
7440;SDS011;29616;51.950;8.572;2023-02-11T09:39:20;182.07;;;46.97;;
7440;SDS011;29616;51.950;8.572;2023-02-11T09:45:09;180.98;;;49.47;;
7440;SDS011;29616;51.950;8.572;2023-02-11T09:47:46;185.63;;;48.95;;
7440;SDS011;29616;51.950;8.572;2023-02-11T09:50:21;201.05;;;53.88;;
7440;SDS011;29616;51.950;8.572;2023-02-11T09:53:00;190.95;;;45.15;;
7440;SDS011;29616;51.950;8.572;2023-02-11T09:55:33;185.50;;;47.83;;
7440;SDS011;29616;51.950;8.572;2023-02-11T09:58:06;215.20;;;63.72;;
7440;SDS011;29616;51.950;8.572;2023-02-11T10:00:42;191.05;;;57.13;;
7440;SDS011;29616;51.950;8.572;2023-02-11T10:03:19;193.45;;;50.78;;
7440;SDS011;29616;51.950;8.572;2023-02-11T10:06:09;211.02;;;59.65;;
7440;SDS011;29616;51.950;8.572;2023-02-11T10:09:10;223.43;;;60.75;;
7440;SDS011;29616;51.950;8.572;2023-02-11T10:11:57;221.00;;;62.35;;
7440;SDS011;29616;51.950;8.572;2023-02-11T10:14:45;198.13;;;48.90;;
7440;SDS011;29616;51.950;8.572;2023-02-11T10:17:32;226.57;;;57.42;;
7440;SDS011;29616;51.950;8.572;2023-02-11T10:20:12;235.77;;;67.40;;
7440;SDS011;29616;51.950;8.572;2023-02-11T10:22:51;225.63;;;68.70;;
7440;SDS011;29616;51.950;8.572;2023-02-11T10:25:26;190.02;;;49.45;;
7440;SDS011;29616;51.950;8.572;2023-02-11T10:28:00;197.40;;;52.40;;
7440;SDS011;29616;51.950;8.572;2023-02-11T10:30:41;200.02;;;58.05;;
7440;SDS011;29616;51.950;8.572;2023-02-11T10:33:19;186.80;;;44.38;;
7440;SDS011;29616;51.950;8.572;2023-02-11T10:35:53;207.35;;;53.78;;
7440;SDS011;29616;51.950;8.572;2023-02-11T10:38:23;202.50;;;52.80;;
7440;SDS011;29616;51.950;8.572;2023-02-11T10:40:54;210.68;;;51.65;;
7440;SDS011;29616;51.950;8.572;2023-02-11T10:43:25;205.57;;;53.03;;
7440;SDS011;29616;51.950;8.572;2023-02-11T10:45:55;198.70;;;50.63;;
7440;SDS011;29616;51.950;8.572;2023-02-11T10:48:36;191.52;;;45.65;;
7440;SDS011;29616;51.950;8.572;2023-02-11T10:51:16;207.30;;;52.97;;
7440;SDS011;29616;51.950;8.572;2023-02-11T10:53:49;207.82;;;57.03;;
7440;SDS011;29616;51.950;8.572;2023-02-11T10:56:41;206.13;;;51.45;;
7440;SDS011;29616;51.950;8.572;2023-02-11T10:59:19;205.00;;;51.47;;
7440;SDS011;29616;51.950;8.572;2023-02-11T11:01:56;197.15;;;45.53;;
7440;SDS011;29616;51.950;8.572;2023-02-11T11:07:17;208.90;;;51.30;;
7440;SDS011;29616;51.950;8.572;2023-02-11T11:09:49;209.77;;;54.05;;
7440;SDS011;29616;51.950;8.572;2023-02-11T11:12:27;230.20;;;65.38;;
7440;SDS011;29616;51.950;8.572;2023-02-11T11:15:12;212.05;;;51.28;;
7440;SDS011;29616;51.950;8.572;2023-02-11T11:17:45;239.52;;;56.53;;
7440;SDS011;29616;51.950;8.572;2023-02-11T11:20:17;234.05;;;59.00;;
7440;SDS011;29616;51.950;8.572;2023-02-11T11:22:53;195.80;;;49.53;;
7440;SDS011;29616;51.950;8.572;2023-02-11T11:25:43;205.10;;;49.65;;
7440;SDS011;29616;51.950;8.572;2023-02-11T11:28:27;195.52;;;47.38;;
7440;SDS011;29616;51.950;8.572;2023-02-11T11:31:01;196.32;;;48.33;;
7440;SDS011;29616;51.950;8.572;2023-02-11T11:33:32;236.23;;;57.40;;
7440;SDS011;29616;51.950;8.572;2023-02-11T11:36:02;214.73;;;52.20;;
7440;SDS011;29616;51.950;8.572;2023-02-11T11:38:36;207.25;;;50.05;;
7440;SDS011;29616;51.950;8.572;2023-02-11T11:41:17;199.65;;;48.92;;
7440;SDS011;29616;51.950;8.572;2023-02-11T11:43:57;219.70;;;55.95;;
7440;SDS011;29616;51.950;8.572;2023-02-11T11:46:31;196.13;;;48.03;;
7440;SDS011;29616;51.950;8.572;2023-02-11T11:49:13;207.13;;;53.63;;
7440;SDS011;29616;51.950;8.572;2023-02-11T11:51:54;201.35;;;50.17;;
7440;SDS011;29616;51.950;8.572;2023-02-11T11:54:32;198.23;;;49.83;;
7440;SDS011;29616;51.950;8.572;2023-02-11T11:57:03;215.00;;;54.40;;
7440;SDS011;29616;51.950;8.572;2023-02-11T11:59:44;215.80;;;54.25;;
7440;SDS011;29616;51.950;8.572;2023-02-11T12:02:31;223.18;;;60.53;;
7440;SDS011;29616;51.950;8.572;2023-02-11T12:05:21;209.23;;;46.47;;
7440;SDS011;29616;51.950;8.572;2023-02-11T12:07:59;241.40;;;56.97;;
7440;SDS011;29616;51.950;8.572;2023-02-11T12:10:46;230.85;;;53.20;;
7440;SDS011;29616;51.950;8.572;2023-02-11T12:13:29;236.32;;;60.30;;
7440;SDS011;29616;51.950;8.572;2023-02-11T12:16:15;226.93;;;51.88;;
7440;SDS011;29616;51.950;8.572;2023-02-11T12:19:12;220.13;;;50.50;;
7440;SDS011;29616;51.950;8.572;2023-02-11T12:22:25;234.68;;;56.80;;
7440;SDS011;29616;51.950;8.572;2023-02-11T12:27:53;237.85;;;58.47;;
7440;SDS011;29616;51.950;8.572;2023-02-11T12:30:37;241.80;;;61.13;;
7440;SDS011;29616;51.950;8.572;2023-02-11T12:33:26;226.85;;;51.20;;
7440;SDS011;29616;51.950;8.572;2023-02-11T12:36:13;209.35;;;44.78;;
7440;SDS011;29616;51.950;8.572;2023-02-11T12:39:00;212.95;;;47.63;;
7440;SDS011;29616;51.950;8.572;2023-02-11T12:41:44;217.93;;;49.85;;
7440;SDS011;29616;51.950;8.572;2023-02-11T12:45:07;229.07;;;52.85;;
7440;SDS011;29616;51.950;8.572;2023-02-11T12:47:54;248.27;;;62.05;;
7440;SDS011;29616;51.950;8.572;2023-02-11T12:50:38;253.85;;;60.53;;
7440;SDS011;29616;51.950;8.572;2023-02-11T12:53:21;232.33;;;53.67;;
7440;SDS011;29616;51.950;8.572;2023-02-11T12:56:11;212.93;;;46.22;;
7440;SDS011;29616;51.950;8.572;2023-02-11T12:58:49;226.90;;;51.92;;
7440;SDS011;29616;51.950;8.572;2023-02-11T13:01:22;244.23;;;58.28;;
7440;SDS011;29616;51.950;8.572;2023-02-11T13:03:58;234.15;;;53.53;;
7440;SDS011;29616;51.950;8.572;2023-02-11T13:06:36;217.40;;;46.45;;
7440;SDS011;29616;51.950;8.572;2023-02-11T13:09:13;220.23;;;48.30;;
7440;SDS011;29616;51.950;8.572;2023-02-11T13:11:48;248.18;;;55.85;;
7440;SDS011;29616;51.950;8.572;2023-02-11T13:14:23;235.10;;;54.80;;
7440;SDS011;29616;51.950;8.572;2023-02-11T13:16:57;224.38;;;51.10;;
7440;SDS011;29616;51.950;8.572;2023-02-11T13:19:28;232.93;;;58.97;;
7440;SDS011;29616;51.950;8.572;2023-02-11T13:22:08;210.80;;;45.60;;
7440;SDS011;29616;51.950;8.572;2023-02-11T13:24:46;210.30;;;52.20;;
7440;SDS011;29616;51.950;8.572;2023-02-11T13:27:25;212.05;;;50.10;;
7440;SDS011;29616;51.950;8.572;2023-02-11T13:30:16;215.27;;;54.03;;
7440;SDS011;29616;51.950;8.572;2023-02-11T13:33:03;204.30;;;50.75;;
7440;SDS011;29616;51.950;8.572;2023-02-11T13:36:13;216.65;;;57.58;;
7440;SDS011;29616;51.950;8.572;2023-02-11T13:38:51;215.02;;;52.17;;
7440;SDS011;29616;51.950;8.572;2023-02-11T13:41:33;216.23;;;63.53;;
7440;SDS011;29616;51.950;8.572;2023-02-11T13:44:17;211.27;;;48.55;;
7440;SDS011;29616;51.950;8.572;2023-02-11T13:46:52;229.82;;;52.85;;
7440;SDS011;29616;51.950;8.572;2023-02-11T13:49:28;209.32;;;46.55;;
7440;SDS011;29616;51.950;8.572;2023-02-11T13:52:14;219.65;;;53.10;;
7440;SDS011;29616;51.950;8.572;2023-02-11T13:54:51;210.55;;;51.05;;
7440;SDS011;29616;51.950;8.572;2023-02-11T13:57:32;205.40;;;48.58;;
7440;SDS011;29616;51.950;8.572;2023-02-11T14:03:24;205.63;;;47.70;;
7440;SDS011;29616;51.950;8.572;2023-02-11T14:06:23;199.00;;;47.58;;
7440;SDS011;29616;51.950;8.572;2023-02-11T14:09:32;200.00;;;54.30;;
7440;SDS011;29616;51.950;8.572;2023-02-11T14:15:20;220.93;;;52.00;;
7440;SDS011;29616;51.950;8.572;2023-02-11T14:17:56;217.45;;;50.33;;
7440;SDS011;29616;51.950;8.572;2023-02-11T14:20:40;227.45;;;55.88;;
7440;SDS011;29616;51.950;8.572;2023-02-11T14:23:20;218.35;;;50.40;;
7440;SDS011;29616;51.950;8.572;2023-02-11T14:26:00;210.88;;;58.78;;
7440;SDS011;29616;51.950;8.572;2023-02-11T14:29:08;206.50;;;47.28;;
7440;SDS011;29616;51.950;8.572;2023-02-11T14:31:47;206.88;;;51.10;;
7440;SDS011;29616;51.950;8.572;2023-02-11T14:34:29;222.80;;;53.20;;
7440;SDS011;29616;51.950;8.572;2023-02-11T14:37:13;225.95;;;49.53;;
7440;SDS011;29616;51.950;8.572;2023-02-11T14:40:00;239.13;;;50.10;;
7440;SDS011;29616;51.950;8.572;2023-02-11T14:42:40;257.65;;;54.33;;
7440;SDS011;29616;51.950;8.572;2023-02-11T14:45:15;244.70;;;55.05;;
7440;SDS011;29616;51.950;8.572;2023-02-11T14:47:53;242.57;;;59.22;;
7440;SDS011;29616;51.950;8.572;2023-02-11T14:50:32;253.52;;;57.88;;
7440;SDS011;29616;51.950;8.572;2023-02-11T14:53:12;223.68;;;46.75;;
7440;SDS011;29616;51.950;8.572;2023-02-11T14:55:47;233.38;;;52.47;;
7440;SDS011;29616;51.950;8.572;2023-02-11T14:58:23;245.73;;;55.80;;
7440;SDS011;29616;51.950;8.572;2023-02-11T15:00:56;250.02;;;56.25;;
7440;SDS011;29616;51.950;8.572;2023-02-11T15:03:32;237.70;;;50.50;;
7440;SDS011;29616;51.950;8.572;2023-02-11T15:06:05;253.75;;;55.40;;
7440;SDS011;29616;51.950;8.572;2023-02-11T15:08:46;228.90;;;47.92;;
7440;SDS011;29616;51.950;8.572;2023-02-11T15:11:20;225.50;;;46.78;;
7440;SDS011;29616;51.950;8.572;2023-02-11T15:13:51;221.07;;;49.10;;
7440;SDS011;29616;51.950;8.572;2023-02-11T15:16:25;235.75;;;52.75;;
7440;SDS011;29616;51.950;8.572;2023-02-11T15:18:55;229.10;;;49.03;;
7440;SDS011;29616;51.950;8.572;2023-02-11T15:21:31;255.25;;;55.55;;
7440;SDS011;29616;51.950;8.572;2023-02-11T15:24:04;235.98;;;51.88;;
7440;SDS011;29616;51.950;8.572;2023-02-11T15:26:55;236.30;;;52.60;;
7440;SDS011;29616;51.950;8.572;2023-02-11T15:29:33;226.45;;;46.35;;
7440;SDS011;29616;51.950;8.572;2023-02-11T15:32:11;232.32;;;53.28;;
7440;SDS011;29616;51.950;8.572;2023-02-11T15:34:42;225.18;;;49.03;;